Canso, Nova Scotia

7:48 AM ADT on September 01, 2015 (GMT -0300)
Port Hawkesbury | | Change Station
CLOSE
Current Station
Airport
Location: Port Hawkesbury,
Elevation: 374 ft
Nearby Weather Stations

Elev 374 ft 45.66 °N, 61.37 °W | Updated 4 minutes ago

Light Rain
Light Rain Mist
57 °F
Feels Like 57 °F
N
18
Wind Variable Wind from NW
Gusts 36 mph

Today
High -- | Low -- °F
--% Chance of Precip.
Yesterday
High -- | Low -- °F
Precip. -- in
6:25 AM 7:41 PM
Waning Gibbous, 90% visible
Pressure 29.73 in
Visibility 6.0 miles
Clouds Few 700 ft
Mostly Cloudy 1400 ft
Overcast 2000 ft
Dew Point 55 °F
Humidity 94%
Rainfall 0.00 in
Snow Depth Not available.
UV 0 out of 12
Pollen Not available.
Air Quality Not available.
Flu Activity Not available.
SPECI CYPD 011044Z AUTO 31016G31KT 6SM -RA BR FEW007 BKN014 OVC020 14/13 A2972 RMK SLP066 DENSITY ALT 500FT
Pressure 29.73 in
Visibility 6.0 miles
Clouds Few 700 ft
Mostly Cloudy 1400 ft
Overcast 2000 ft
Dew Point 55 °F
Humidity 94%
Rainfall 0.00 in
Snow Depth Not available.
UV 0 out of 12
Pollen Not available.
Air Quality Not available.
Flu Activity Not available.
SPECI CYPD 011044Z AUTO 31016G31KT 6SM -RA BR FEW007 BKN014 OVC020 14/13 A2972 RMK SLP066 DENSITY ALT 500FT

10-Day Weather Forecast

×

Almanac

Astronomy

Sep. 01, 2015 Rise Set
Actual Time
Civil Twilight
Nautical Twilight
Astronomical Twilight
Moon
Length of Visible Light
Length of Day
Tomorrow will be .
, % of the Moon is Illuminated

Today's Extremes

Country Highs Country Lows

Community

WunderPhotos

Upload Photos

1,851,501 photos uploaded!

WunderBlogs® & News

Nearby

Air Quality

  Air Quality AQ Index Pollutant
Not available.

Snow Depth

Station Depth Elevation

Earthquake Activity

City Distance Mag. Time & Date
Minimum magnitude displayed is 2.5.

Coastal Water Temperatures

Place Temperature

Stations

Nearby Weather Stations

Station Location Temp. Windchill Dew Point Humidity Wind Precip. Elev Updated Type